sensor_id;sensor_type;location;lat;lon;timestamp;temperature;humidity
7814;DHT22;3952;48.364;16.022;2022-10-26T00:01:07;8.60;99.90
7814;DHT22;3952;48.364;16.022;2022-10-26T00:03:35;8.50;99.90
7814;DHT22;3952;48.364;16.022;2022-10-26T00:06:07;8.50;99.90
7814;DHT22;3952;48.364;16.022;2022-10-26T00:08:34;8.40;99.90
7814;DHT22;3952;48.364;16.022;2022-10-26T00:11:02;8.40;99.90
7814;DHT22;3952;48.364;16.022;2022-10-26T00:13:30;8.40;99.90
7814;DHT22;3952;48.364;16.022;2022-10-26T00:15:57;8.40;99.90
7814;DHT22;3952;48.364;16.022;2022-10-26T00:18:26;8.40;99.90
7814;DHT22;3952;48.364;16.022;2022-10-26T00:20:53;8.40;99.90
7814;DHT22;3952;48.364;16.022;2022-10-26T00:23:20;8.40;99.90
7814;DHT22;3952;48.364;16.022;2022-10-26T00:25:53;8.40;99.90
7814;DHT22;3952;48.364;16.022;2022-10-26T00:28:21;8.30;99.90
7814;DHT22;3952;48.364;16.022;2022-10-26T00:30:48;8.30;99.90
7814;DHT22;3952;48.364;16.022;2022-10-26T00:33:16;8.20;99.90
7814;DHT22;3952;48.364;16.022;2022-10-26T00:35:48;8.20;99.90
7814;DHT22;3952;48.364;16.022;2022-10-26T00:38:19;8.20;99.90
7814;DHT22;3952;48.364;16.022;2022-10-26T00:40:46;8.10;99.90
7814;DHT22;3952;48.364;16.022;2022-10-26T00:43:15;8.20;99.90
7814;DHT22;3952;48.364;16.022;2022-10-26T00:46:01;8.20;99.90
7814;DHT22;3952;48.364;16.022;2022-10-26T00:48:30;8.20;99.90
7814;DHT22;3952;48.364;16.022;2022-10-26T00:51:05;8.20;99.90
7814;DHT22;3952;48.364;16.022;2022-10-26T00:53:33;8.20;99.90
7814;DHT22;3952;48.364;16.022;2022-10-26T00:56:01;8.10;99.90
7814;DHT22;3952;48.364;16.022;2022-10-26T00:58:29;8.10;99.90
7814;DHT22;3952;48.364;16.022;2022-10-26T01:00:56;8.00;99.90
7814;DHT22;3952;48.364;16.022;2022-10-26T01:03:23;7.90;99.90
7814;DHT22;3952;48.364;16.022;2022-10-26T01:05:55;7.80;99.90
7814;DHT22;3952;48.364;16.022;2022-10-26T01:08:25;7.80;99.90
7814;DHT22;3952;48.364;16.022;2022-10-26T01:10:53;7.80;99.90
7814;DHT22;3952;48.364;16.022;2022-10-26T01:13:21;7.80;99.90
7814;DHT22;3952;48.364;16.022;2022-10-26T01:15:54;7.80;99.90
7814;DHT22;3952;48.364;16.022;2022-10-26T01:18:30;7.80;99.90
7814;DHT22;3952;48.364;16.022;2022-10-26T01:21:28;7.90;99.90
7814;DHT22;3952;48.364;16.022;2022-10-26T01:24:27;7.90;99.90
7814;DHT22;3952;48.364;16.022;2022-10-26T01:27:11;7.90;99.90
7814;DHT22;3952;48.364;16.022;2022-10-26T01:33:04;7.80;99.90
7814;DHT22;3952;48.364;16.022;2022-10-26T01:35:37;7.70;99.90
7814;DHT22;3952;48.364;16.022;2022-10-26T01:38:13;7.60;99.90
7814;DHT22;3952;48.364;16.022;2022-10-26T01:40:46;7.50;99.90
7814;DHT22;3952;48.364;16.022;2022-10-26T01:43:17;7.50;99.90
7814;DHT22;3952;48.364;16.022;2022-10-26T01:45:46;7.40;99.90
7814;DHT22;3952;48.364;16.022;2022-10-26T01:48:18;7.30;99.90
7814;DHT22;3952;48.364;16.022;2022-10-26T01:50:48;7.30;99.90
7814;DHT22;3952;48.364;16.022;2022-10-26T01:53:18;7.30;99.90
7814;DHT22;3952;48.364;16.022;2022-10-26T01:55:48;7.20;99.90
7814;DHT22;3952;48.364;16.022;2022-10-26T01:58:40;7.20;99.90
7814;DHT22;3952;48.364;16.022;2022-10-26T02:04:24;7.20;99.90
7814;DHT22;3952;48.364;16.022;2022-10-26T02:06:59;7.20;99.90
7814;DHT22;3952;48.364;16.022;2022-10-26T02:09:32;7.30;99.90
7814;DHT22;3952;48.364;16.022;2022-10-26T02:12:05;7.30;99.90
7814;DHT22;3952;48.364;16.022;2022-10-26T02:14:46;7.40;99.90
7814;DHT22;3952;48.364;16.022;2022-10-26T02:17:19;7.40;99.90
7814;DHT22;3952;48.364;16.022;2022-10-26T02:19:53;7.40;99.90
7814;DHT22;3952;48.364;16.022;2022-10-26T02:22:25;7.40;99.90
7814;DHT22;3952;48.364;16.022;2022-10-26T02:24:55;7.40;99.90
7814;DHT22;3952;48.364;16.022;2022-10-26T02:27:27;7.40;99.90
7814;DHT22;3952;48.364;16.022;2022-10-26T02:29:57;7.40;99.90
7814;DHT22;3952;48.364;16.022;2022-10-26T02:32:28;7.30;99.90
7814;DHT22;3952;48.364;16.022;2022-10-26T02:35:00;7.40;99.90
7814;DHT22;3952;48.364;16.022;2022-10-26T02:37:29;7.40;99.90
7814;DHT22;3952;48.364;16.022;2022-10-26T02:40:00;7.40;99.90
7814;DHT22;3952;48.364;16.022;2022-10-26T02:42:29;7.30;99.90
7814;DHT22;3952;48.364;16.022;2022-10-26T02:45:01;7.30;99.90
7814;DHT22;3952;48.364;16.022;2022-10-26T02:47:29;7.30;99.90
7814;DHT22;3952;48.364;16.022;2022-10-26T02:49:58;7.30;99.90
7814;DHT22;3952;48.364;16.022;2022-10-26T02:52:31;7.20;99.90
7814;DHT22;3952;48.364;16.022;2022-10-26T02:55:07;7.20;99.90
7814;DHT22;3952;48.364;16.022;2022-10-26T02:57:38;7.20;99.90
7814;DHT22;3952;48.364;16.022;2022-10-26T03:00:07;7.10;99.90
7814;DHT22;3952;48.364;16.022;2022-10-26T03:02:35;7.00;99.90
7814;DHT22;3952;48.364;16.022;2022-10-26T03:05:13;7.00;99.90
7814;DHT22;3952;48.364;16.022;2022-10-26T03:07:41;6.90;99.90
7814;DHT22;3952;48.364;16.022;2022-10-26T03:10:09;6.90;99.90
7814;DHT22;3952;48.364;16.022;2022-10-26T03:12:36;6.80;99.90
7814;DHT22;3952;48.364;16.022;2022-10-26T03:15:04;6.80;99.90
7814;DHT22;3952;48.364;16.022;2022-10-26T03:17:32;6.80;99.90
7814;DHT22;3952;48.364;16.022;2022-10-26T03:19:59;6.80;99.90
7814;DHT22;3952;48.364;16.022;2022-10-26T03:22:27;6.80;99.90
7814;DHT22;3952;48.364;16.022;2022-10-26T03:24:55;6.80;99.90
7814;DHT22;3952;48.364;16.022;2022-10-26T03:27:22;6.80;99.90
7814;DHT22;3952;48.364;16.022;2022-10-26T03:29:49;6.80;99.90
7814;DHT22;3952;48.364;16.022;2022-10-26T03:32:16;6.80;99.90
7814;DHT22;3952;48.364;16.022;2022-10-26T03:34:43;6.80;99.90
7814;DHT22;3952;48.364;16.022;2022-10-26T03:37:11;6.80;99.90
7814;DHT22;3952;48.364;16.022;2022-10-26T03:39:39;6.80;99.90
7814;DHT22;3952;48.364;16.022;2022-10-26T03:42:06;6.80;99.90
7814;DHT22;3952;48.364;16.022;2022-10-26T03:44:34;6.80;99.90
7814;DHT22;3952;48.364;16.022;2022-10-26T03:47:01;6.80;99.90
7814;DHT22;3952;48.364;16.022;2022-10-26T03:49:28;6.70;99.90
7814;DHT22;3952;48.364;16.022;2022-10-26T03:51:55;6.70;99.90
7814;DHT22;3952;48.364;16.022;2022-10-26T03:54:22;6.70;99.90
7814;DHT22;3952;48.364;16.022;2022-10-26T03:56:51;6.70;99.90
7814;DHT22;3952;48.364;16.022;2022-10-26T03:59:18;6.70;99.90
7814;DHT22;3952;48.364;16.022;2022-10-26T04:01:46;6.70;99.90
7814;DHT22;3952;48.364;16.022;2022-10-26T04:04:13;6.70;99.90
7814;DHT22;3952;48.364;16.022;2022-10-26T04:06:40;6.60;99.90
7814;DHT22;3952;48.364;16.022;2022-10-26T04:09:07;6.60;99.90
7814;DHT22;3952;48.364;16.022;2022-10-26T04:11:35;6.60;99.90
7814;DHT22;3952;48.364;16.022;2022-10-26T04:14:03;6.60;99.90
7814;DHT22;3952;48.364;16.022;2022-10-26T04:16:30;6.60;99.90
7814;DHT22;3952;48.364;16.022;2022-10-26T04:18:58;6.60;99.90
7814;DHT22;3952;48.364;16.022;2022-10-26T04:21:25;6.50;99.90
7814;DHT22;3952;48.364;16.022;2022-10-26T04:23:52;6.50;99.90
7814;DHT22;3952;48.364;16.022;2022-10-26T04:26:20;6.60;99.90
7814;DHT22;3952;48.364;16.022;2022-10-26T04:28:47;6.70;99.90
7814;DHT22;3952;48.364;16.022;2022-10-26T04:31:15;6.70;99.90
7814;DHT22;3952;48.364;16.022;2022-10-26T04:33:42;6.70;99.90
7814;DHT22;3952;48.364;16.022;2022-10-26T04:36:10;6.70;99.90
7814;DHT22;3952;48.364;16.022;2022-10-26T04:38:37;6.70;99.90
7814;DHT22;3952;48.364;16.022;2022-10-26T04:41:04;6.70;99.90
7814;DHT22;3952;48.364;16.022;2022-10-26T04:43:31;6.70;99.90
7814;DHT22;3952;48.364;16.022;2022-10-26T04:45:59;6.70;99.90
7814;DHT22;3952;48.364;16.022;2022-10-26T04:48:27;6.70;99.90
7814;DHT22;3952;48.364;16.022;2022-10-26T04:50:57;6.70;99.90
7814;DHT22;3952;48.364;16.022;2022-10-26T04:53:24;6.70;99.90
7814;DHT22;3952;48.364;16.022;2022-10-26T04:55:55;6.70;99.90
7814;DHT22;3952;48.364;16.022;2022-10-26T04:58:23;6.70;99.90
7814;DHT22;3952;48.364;16.022;2022-10-26T05:00:50;6.60;99.90
7814;DHT22;3952;48.364;16.022;2022-10-26T05:03:17;6.60;99.90
7814;DHT22;3952;48.364;16.022;2022-10-26T05:05:46;6.60;99.90
7814;DHT22;3952;48.364;16.022;2022-10-26T05:08:14;6.60;99.90
7814;DHT22;3952;48.364;16.022;2022-10-26T05:10:41;6.60;99.90
7814;DHT22;3952;48.364;16.022;2022-10-26T05:13:08;6.60;99.90
7814;DHT22;3952;48.364;16.022;2022-10-26T05:15:36;6.60;99.90
7814;DHT22;3952;48.364;16.022;2022-10-26T05:18:04;6.60;99.90
7814;DHT22;3952;48.364;16.022;2022-10-26T05:20:34;6.60;99.90
7814;DHT22;3952;48.364;16.022;2022-10-26T05:23:04;6.60;99.90
7814;DHT22;3952;48.364;16.022;2022-10-26T05:25:34;6.60;99.90
7814;DHT22;3952;48.364;16.022;2022-10-26T05:28:03;6.60;99.90
7814;DHT22;3952;48.364;16.022;2022-10-26T05:30:30;6.60;99.90
7814;DHT22;3952;48.364;16.022;2022-10-26T05:32:59;6.50;99.90
7814;DHT22;3952;48.364;16.022;2022-10-26T05:35:28;6.50;99.90
7814;DHT22;3952;48.364;16.022;2022-10-26T05:37:55;6.50;99.90
7814;DHT22;3952;48.364;16.022;2022-10-26T05:40:24;6.50;99.90
7814;DHT22;3952;48.364;16.022;2022-10-26T05:42:51;6.50;99.90
7814;DHT22;3952;48.364;16.022;2022-10-26T05:45:19;6.50;99.90
7814;DHT22;3952;48.364;16.022;2022-10-26T05:47:46;6.50;99.90
7814;DHT22;3952;48.364;16.022;2022-10-26T05:50:13;6.50;99.90
7814;DHT22;3952;48.364;16.022;2022-10-26T05:52:42;6.60;99.90
7814;DHT22;3952;48.364;16.022;2022-10-26T05:55:12;6.60;99.90
7814;DHT22;3952;48.364;16.022;2022-10-26T05:57:42;6.60;99.90
7814;DHT22;3952;48.364;16.022;2022-10-26T06:00:15;6.60;99.90
7814;DHT22;3952;48.364;16.022;2022-10-26T06:02:51;6.70;99.90
7814;DHT22;3952;48.364;16.022;2022-10-26T06:05:26;6.70;99.90
7814;DHT22;3952;48.364;16.022;2022-10-26T06:07:54;6.70;99.90
7814;DHT22;3952;48.364;16.022;2022-10-26T06:10:22;6.80;99.90
7814;DHT22;3952;48.364;16.022;2022-10-26T06:12:51;6.80;99.90
7814;DHT22;3952;48.364;16.022;2022-10-26T06:15:20;6.90;99.90
7814;DHT22;3952;48.364;16.022;2022-10-26T06:17:55;6.90;99.90
7814;DHT22;3952;48.364;16.022;2022-10-26T06:20:37;7.00;99.90
7814;DHT22;3952;48.364;16.022;2022-10-26T06:23:32;7.00;99.90
7814;DHT22;3952;48.364;16.022;2022-10-26T06:26:08;7.00;99.90
7814;DHT22;3952;48.364;16.022;2022-10-26T06:28:49;7.00;99.90
7814;DHT22;3952;48.364;16.022;2022-10-26T06:31:19;7.20;99.90
7814;DHT22;3952;48.364;16.022;2022-10-26T06:33:46;7.30;99.90
7814;DHT22;3952;48.364;16.022;2022-10-26T06:36:21;7.30;99.90
7814;DHT22;3952;48.364;16.022;2022-10-26T06:38:52;7.40;99.90
7814;DHT22;3952;48.364;16.022;2022-10-26T06:41:20;7.40;99.90
7814;DHT22;3952;48.364;16.022;2022-10-26T06:43:51;7.50;99.90
7814;DHT22;3952;48.364;16.022;2022-10-26T06:46:29;7.60;99.90
7814;DHT22;3952;48.364;16.022;2022-10-26T06:49:04;7.70;99.90
7814;DHT22;3952;48.364;16.022;2022-10-26T06:51:35;7.80;99.90
7814;DHT22;3952;48.364;16.022;2022-10-26T06:54:12;7.80;99.90
7814;DHT22;3952;48.364;16.022;2022-10-26T06:56:43;7.90;99.90
7814;DHT22;3952;48.364;16.022;2022-10-26T06:59:16;8.00;99.90
7814;DHT22;3952;48.364;16.022;2022-10-26T07:01:48;8.10;99.90
7814;DHT22;3952;48.364;16.022;2022-10-26T07:04:15;8.80;99.90
7814;DHT22;3952;48.364;16.022;2022-10-26T07:06:42;8.30;99.90
7814;DHT22;3952;48.364;16.022;2022-10-26T07:09:09;8.30;99.90
7814;DHT22;3952;48.364;16.022;2022-10-26T07:11:36;8.40;99.90
7814;DHT22;3952;48.364;16.022;2022-10-26T07:14:03;8.50;99.90
7814;DHT22;3952;48.364;16.022;2022-10-26T07:16:32;8.50;99.90
7814;DHT22;3952;48.364;16.022;2022-10-26T07:18:59;8.60;99.90
7814;DHT22;3952;48.364;16.022;2022-10-26T07:21:27;8.70;99.90
7814;DHT22;3952;48.364;16.022;2022-10-26T07:23:54;8.80;99.90
7814;DHT22;3952;48.364;16.022;2022-10-26T07:26:22;8.80;99.90
7814;DHT22;3952;48.364;16.022;2022-10-26T07:28:50;8.90;99.90
7814;DHT22;3952;48.364;16.022;2022-10-26T07:31:17;9.00;99.90
7814;DHT22;3952;48.364;16.022;2022-10-26T07:33:46;9.00;99.90
7814;DHT22;3952;48.364;16.022;2022-10-26T07:36:13;9.10;99.90
7814;DHT22;3952;48.364;16.022;2022-10-26T07:38:40;9.10;99.90
7814;DHT22;3952;48.364;16.022;2022-10-26T07:41:07;9.20;99.90
7814;DHT22;3952;48.364;16.022;2022-10-26T07:43:34;9.30;99.90
7814;DHT22;3952;48.364;16.022;2022-10-26T07:46:01;9.40;99.90
7814;DHT22;3952;48.364;16.022;2022-10-26T07:48:29;9.50;99.90
7814;DHT22;3952;48.364;16.022;2022-10-26T07:51:00;9.60;99.90
7814;DHT22;3952;48.364;16.022;2022-10-26T07:53:27;9.70;99.90
7814;DHT22;3952;48.364;16.022;2022-10-26T07:55:55;9.70;99.90
7814;DHT22;3952;48.364;16.022;2022-10-26T07:58:23;9.70;99.90
7814;DHT22;3952;48.364;16.022;2022-10-26T08:00:51;9.80;99.90
7814;DHT22;3952;48.364;16.022;2022-10-26T08:03:19;9.80;99.90
7814;DHT22;3952;48.364;16.022;2022-10-26T08:05:47;9.90;99.90
7814;DHT22;3952;48.364;16.022;2022-10-26T08:08:17;9.90;99.90
7814;DHT22;3952;48.364;16.022;2022-10-26T08:10:45;10.00;99.90
7814;DHT22;3952;48.364;16.022;2022-10-26T08:13:13;10.10;99.90
7814;DHT22;3952;48.364;16.022;2022-10-26T08:15:40;10.10;99.90
7814;DHT22;3952;48.364;16.022;2022-10-26T08:18:08;10.20;99.90
7814;DHT22;3952;48.364;16.022;2022-10-26T08:20:35;10.20;99.90
7814;DHT22;3952;48.364;16.022;2022-10-26T08:23:02;10.20;99.90
7814;DHT22;3952;48.364;16.022;2022-10-26T08:25:32;10.20;99.90
7814;DHT22;3952;48.364;16.022;2022-10-26T08:28:00;10.20;99.90
7814;DHT22;3952;48.364;16.022;2022-10-26T08:30:28;10.20;99.90
7814;DHT22;3952;48.364;16.022;2022-10-26T08:32:59;10.20;99.90
7814;DHT22;3952;48.364;16.022;2022-10-26T08:35:26;10.20;99.90
7814;DHT22;3952;48.364;16.022;2022-10-26T08:37:54;10.20;99.90
7814;DHT22;3952;48.364;16.022;2022-10-26T08:40:25;10.20;99.90
7814;DHT22;3952;48.364;16.022;2022-10-26T08:42:59;10.30;99.90
7814;DHT22;3952;48.364;16.022;2022-10-26T08:45:30;10.30;99.90
7814;DHT22;3952;48.364;16.022;2022-10-26T08:48:02;10.30;99.90
7814;DHT22;3952;48.364;16.022;2022-10-26T08:50:32;10.30;99.90
7814;DHT22;3952;48.364;16.022;2022-10-26T08:53:04;10.40;99.90
7814;DHT22;3952;48.364;16.022;2022-10-26T08:55:40;10.40;99.90
7814;DHT22;3952;48.364;16.022;2022-10-26T08:58:15;10.40;99.90
7814;DHT22;3952;48.364;16.022;2022-10-26T09:00:45;10.40;99.90
7814;DHT22;3952;48.364;16.022;2022-10-26T09:03:14;10.50;99.90
7814;DHT22;3952;48.364;16.022;2022-10-26T09:05:50;10.50;99.90
7814;DHT22;3952;48.364;16.022;2022-10-26T09:08:26;10.50;99.90
7814;DHT22;3952;48.364;16.022;2022-10-26T09:11:01;10.50;99.90
7814;DHT22;3952;48.364;16.022;2022-10-26T09:13:41;10.60;99.90
7814;DHT22;3952;48.364;16.022;2022-10-26T09:16:19;10.60;99.90
7814;DHT22;3952;48.364;16.022;2022-10-26T09:18:56;10.70;99.90
7814;DHT22;3952;48.364;16.022;2022-10-26T09:21:34;10.70;99.90
7814;DHT22;3952;48.364;16.022;2022-10-26T09:24:11;10.70;99.90
7814;DHT22;3952;48.364;16.022;2022-10-26T09:26:48;10.80;99.90
7814;DHT22;3952;48.364;16.022;2022-10-26T09:29:22;10.80;99.90
7814;DHT22;3952;48.364;16.022;2022-10-26T09:31:52;10.90;99.90
7814;DHT22;3952;48.364;16.022;2022-10-26T09:34:26;11.00;99.90
7814;DHT22;3952;48.364;16.022;2022-10-26T09:36:55;11.10;99.90
7814;DHT22;3952;48.364;16.022;2022-10-26T09:39:29;11.20;99.90
7814;DHT22;3952;48.364;16.022;2022-10-26T09:41:59;11.30;99.90
7814;DHT22;3952;48.364;16.022;2022-10-26T09:44:33;11.40;99.90
7814;DHT22;3952;48.364;16.022;2022-10-26T09:47:08;11.40;99.90
7814;DHT22;3952;48.364;16.022;2022-10-26T09:49:43;11.40;99.90
7814;DHT22;3952;48.364;16.022;2022-10-26T09:52:13;11.40;99.90
7814;DHT22;3952;48.364;16.022;2022-10-26T09:54:40;11.40;99.90
7814;DHT22;3952;48.364;16.022;2022-10-26T09:57:09;11.40;99.90
7814;DHT22;3952;48.364;16.022;2022-10-26T09:59:41;11.50;99.90
7814;DHT22;3952;48.364;16.022;2022-10-26T10:02:33;11.50;99.90
7814;DHT22;3952;48.364;16.022;2022-10-26T10:05:01;11.50;99.90
7814;DHT22;3952;48.364;16.022;2022-10-26T10:07:28;11.40;99.90
7814;DHT22;3952;48.364;16.022;2022-10-26T10:10:07;11.50;99.90
7814;DHT22;3952;48.364;16.022;2022-10-26T10:12:34;11.60;99.90
7814;DHT22;3952;48.364;16.022;2022-10-26T10:15:03;11.70;99.90
7814;DHT22;3952;48.364;16.022;2022-10-26T10:17:31;11.80;99.90
7814;DHT22;3952;48.364;16.022;2022-10-26T10:20:07;11.90;99.90
7814;DHT22;3952;48.364;16.022;2022-10-26T10:22:55;11.90;99.90
7814;DHT22;3952;48.364;16.022;2022-10-26T10:25:31;12.10;99.90
7814;DHT22;3952;48.364;16.022;2022-10-26T10:27:59;12.20;99.90
7814;DHT22;3952;48.364;16.022;2022-10-26T10:30:31;12.30;99.90
7814;DHT22;3952;48.364;16.022;2022-10-26T10:33:06;12.40;99.90
7814;DHT22;3952;48.364;16.022;2022-10-26T10:35:33;12.40;99.90
7814;DHT22;3952;48.364;16.022;2022-10-26T10:38:01;12.50;99.90
7814;DHT22;3952;48.364;16.022;2022-10-26T10:40:30;12.60;99.90
7814;DHT22;3952;48.364;16.022;2022-10-26T10:43:04;12.60;99.90
7814;DHT22;3952;48.364;16.022;2022-10-26T10:45:35;12.60;99.90
7814;DHT22;3952;48.364;16.022;2022-10-26T10:48:04;12.60;99.90
7814;DHT22;3952;48.364;16.022;2022-10-26T10:50:50;12.70;99.90
7814;DHT22;3952;48.364;16.022;2022-10-26T10:53:20;12.70;99.90
7814;DHT22;3952;48.364;16.022;2022-10-26T10:56:04;12.70;99.90
7814;DHT22;3952;48.364;16.022;2022-10-26T10:58:42;12.80;99.90
7814;DHT22;3952;48.364;16.022;2022-10-26T11:01:13;12.80;99.90
7814;DHT22;3952;48.364;16.022;2022-10-26T11:03:53;12.80;99.90
7814;DHT22;3952;48.364;16.022;2022-10-26T11:06:27;12.90;99.90
7814;DHT22;3952;48.364;16.022;2022-10-26T11:09:00;12.90;99.90
7814;DHT22;3952;48.364;16.022;2022-10-26T11:11:33;12.90;99.90
7814;DHT22;3952;48.364;16.022;2022-10-26T11:14:04;13.00;99.90
7814;DHT22;3952;48.364;16.022;2022-10-26T11:16:35;13.00;99.90
7814;DHT22;3952;48.364;16.022;2022-10-26T11:19:09;12.90;99.90
7814;DHT22;3952;48.364;16.022;2022-10-26T11:21:37;12.90;99.90
7814;DHT22;3952;48.364;16.022;2022-10-26T11:24:12;13.00;99.90
7814;DHT22;3952;48.364;16.022;2022-10-26T11:26:45;13.10;99.90
7814;DHT22;3952;48.364;16.022;2022-10-26T11:29:34;13.10;99.90
7814;DHT22;3952;48.364;16.022;2022-10-26T11:32:10;13.20;99.90
7814;DHT22;3952;48.364;16.022;2022-10-26T11:34:45;13.30;99.90
7814;DHT22;3952;48.364;16.022;2022-10-26T11:37:18;13.30;99.90
7814;DHT22;3952;48.364;16.022;2022-10-26T11:39:59;13.30;99.90
7814;DHT22;3952;48.364;16.022;2022-10-26T11:42:32;13.40;99.90
7814;DHT22;3952;48.364;16.022;2022-10-26T11:45:07;13.40;99.90
7814;DHT22;3952;48.364;16.022;2022-10-26T11:47:41;13.40;99.90
7814;DHT22;3952;48.364;16.022;2022-10-26T11:50:16;13.40;99.90
7814;DHT22;3952;48.364;16.022;2022-10-26T11:52:48;13.40;99.90
7814;DHT22;3952;48.364;16.022;2022-10-26T11:55:19;13.40;99.90
7814;DHT22;3952;48.364;16.022;2022-10-26T11:57:48;13.40;99.90
7814;DHT22;3952;48.364;16.022;2022-10-26T12:00:18;13.50;99.90
7814;DHT22;3952;48.364;16.022;2022-10-26T12:02:49;13.50;99.90
7814;DHT22;3952;48.364;16.022;2022-10-26T12:05:21;13.50;99.90
7814;DHT22;3952;48.364;16.022;2022-10-26T12:07:52;13.40;99.90
7814;DHT22;3952;48.364;16.022;2022-10-26T12:10:27;13.40;99.90
7814;DHT22;3952;48.364;16.022;2022-10-26T12:13:04;13.40;99.90
7814;DHT22;3952;48.364;16.022;2022-10-26T12:15:40;13.40;99.90
7814;DHT22;3952;48.364;16.022;2022-10-26T12:18:14;13.40;99.90
7814;DHT22;3952;48.364;16.022;2022-10-26T12:20:54;13.40;99.90
7814;DHT22;3952;48.364;16.022;2022-10-26T12:23:28;13.40;99.90
7814;DHT22;3952;48.364;16.022;2022-10-26T12:29:25;13.40;99.90
7814;DHT22;3952;48.364;16.022;2022-10-26T12:31:52;13.50;99.90
7814;DHT22;3952;48.364;16.022;2022-10-26T12:34:24;13.60;99.90
7814;DHT22;3952;48.364;16.022;2022-10-26T12:37:22;13.70;99.90
7814;DHT22;3952;48.364;16.022;2022-10-26T12:39:50;13.80;99.90
7814;DHT22;3952;48.364;16.022;2022-10-26T12:42:28;13.90;99.90
7814;DHT22;3952;48.364;16.022;2022-10-26T12:45:14;13.90;99.90
7814;DHT22;3952;48.364;16.022;2022-10-26T12:48:00;14.00;99.90
7814;DHT22;3952;48.364;16.022;2022-10-26T12:50:29;14.00;99.90
7814;DHT22;3952;48.364;16.022;2022-10-26T12:52:57;14.00;99.90
7814;DHT22;3952;48.364;16.022;2022-10-26T12:55:59;14.10;99.90
7814;DHT22;3952;48.364;16.022;2022-10-26T12:59:04;14.10;99.90
7814;DHT22;3952;48.364;16.022;2022-10-26T13:02:16;14.10;99.90
7814;DHT22;3952;48.364;16.022;2022-10-26T13:05:34;14.10;99.90
7814;DHT22;3952;48.364;16.022;2022-10-26T13:08:07;14.10;99.90
7814;DHT22;3952;48.364;16.022;2022-10-26T13:10:36;14.10;99.90
7814;DHT22;3952;48.364;16.022;2022-10-26T13:13:06;14.10;99.90
7814;DHT22;3952;48.364;16.022;2022-10-26T13:15:38;14.10;99.90
7814;DHT22;3952;48.364;16.022;2022-10-26T13:18:13;14.10;99.90
7814;DHT22;3952;48.364;16.022;2022-10-26T13:20:57;14.20;99.90
7814;DHT22;3952;48.364;16.022;2022-10-26T13:23:28;14.20;99.90
7814;DHT22;3952;48.364;16.022;2022-10-26T13:26:06;14.20;99.90
7814;DHT22;3952;48.364;16.022;2022-10-26T13:28:46;14.20;99.90
7814;DHT22;3952;48.364;16.022;2022-10-26T13:34:30;14.20;99.90
7814;DHT22;3952;48.364;16.022;2022-10-26T13:37:06;14.20;99.90
7814;DHT22;3952;48.364;16.022;2022-10-26T13:39:41;14.20;99.90
7814;DHT22;3952;48.364;16.022;2022-10-26T13:42:13;14.20;99.90
7814;DHT22;3952;48.364;16.022;2022-10-26T13:44:51;14.10;99.90
7814;DHT22;3952;48.364;16.022;2022-10-26T13:47:26;14.10;99.90
7814;DHT22;3952;48.364;16.022;2022-10-26T13:49:58;14.10;99.90
7814;DHT22;3952;48.364;16.022;2022-10-26T13:52:32;14.00;99.90
7814;DHT22;3952;48.364;16.022;2022-10-26T13:55:04;14.00;99.90
7814;DHT22;3952;48.364;16.022;2022-10-26T13:57:36;14.00;99.90
7814;DHT22;3952;48.364;16.022;2022-10-26T14:00:08;14.00;99.90
7814;DHT22;3952;48.364;16.022;2022-10-26T14:02:41;14.00;99.90
7814;DHT22;3952;48.364;16.022;2022-10-26T14:05:10;14.00;99.90
7814;DHT22;3952;48.364;16.022;2022-10-26T14:07:43;14.00;99.90
7814;DHT22;3952;48.364;16.022;2022-10-26T14:10:23;14.00;99.90
7814;DHT22;3952;48.364;16.022;2022-10-26T14:12:51;14.00;99.90
7814;DHT22;3952;48.364;16.022;2022-10-26T14:15:22;13.90;99.90
7814;DHT22;3952;48.364;16.022;2022-10-26T14:17:51;13.90;99.90
7814;DHT22;3952;48.364;16.022;2022-10-26T14:20:21;13.90;99.90
7814;DHT22;3952;48.364;16.022;2022-10-26T14:22:51;13.90;99.90
7814;DHT22;3952;48.364;16.022;2022-10-26T14:25:21;13.90;99.90
7814;DHT22;3952;48.364;16.022;2022-10-26T14:27:49;13.90;99.90
7814;DHT22;3952;48.364;16.022;2022-10-26T14:30:21;13.90;99.90
7814;DHT22;3952;48.364;16.022;2022-10-26T14:32:49;13.90;99.90
7814;DHT22;3952;48.364;16.022;2022-10-26T14:35:18;13.80;99.90
7814;DHT22;3952;48.364;16.022;2022-10-26T14:37:52;13.80;99.90
7814;DHT22;3952;48.364;16.022;2022-10-26T14:40:23;13.80;99.90
7814;DHT22;3952;48.364;16.022;2022-10-26T14:42:52;14.40;99.90
7814;DHT22;3952;48.364;16.022;2022-10-26T14:45:23;13.70;99.90
7814;DHT22;3952;48.364;16.022;2022-10-26T14:47:51;13.80;99.90
7814;DHT22;3952;48.364;16.022;2022-10-26T14:50:20;13.80;99.90
7814;DHT22;3952;48.364;16.022;2022-10-26T14:52:50;13.70;99.90
7814;DHT22;3952;48.364;16.022;2022-10-26T14:55:20;13.70;99.90
7814;DHT22;3952;48.364;16.022;2022-10-26T14:57:50;13.70;99.90
7814;DHT22;3952;48.364;16.022;2022-10-26T15:00:20;13.70;99.90
7814;DHT22;3952;48.364;16.022;2022-10-26T15:02:49;13.70;99.90
7814;DHT22;3952;48.364;16.022;2022-10-26T15:05:19;13.70;99.90
7814;DHT22;3952;48.364;16.022;2022-10-26T15:07:47;13.70;99.90
7814;DHT22;3952;48.364;16.022;2022-10-26T15:10:47;13.70;99.90
7814;DHT22;3952;48.364;16.022;2022-10-26T15:13:20;13.70;99.90
7814;DHT22;3952;48.364;16.022;2022-10-26T15:15:51;13.70;99.90
7814;DHT22;3952;48.364;16.022;2022-10-26T15:18:21;13.60;99.90
7814;DHT22;3952;48.364;16.022;2022-10-26T15:20:50;13.60;99.90
7814;DHT22;3952;48.364;16.022;2022-10-26T15:23:18;13.60;99.90
7814;DHT22;3952;48.364;16.022;2022-10-26T15:25:53;13.60;99.90
7814;DHT22;3952;48.364;16.022;2022-10-26T15:28:22;13.60;99.90
7814;DHT22;3952;48.364;16.022;2022-10-26T15:31:04;13.60;99.90
7814;DHT22;3952;48.364;16.022;2022-10-26T15:33:32;13.50;99.90
7814;DHT22;3952;48.364;16.022;2022-10-26T15:36:21;13.50;99.90
7814;DHT22;3952;48.364;16.022;2022-10-26T15:38:49;13.50;99.90
7814;DHT22;3952;48.364;16.022;2022-10-26T15:41:22;13.50;99.90
7814;DHT22;3952;48.364;16.022;2022-10-26T15:43:50;13.50;99.90
7814;DHT22;3952;48.364;16.022;2022-10-26T15:46:19;13.50;99.90
7814;DHT22;3952;48.364;16.022;2022-10-26T15:48:53;13.50;99.90
7814;DHT22;3952;48.364;16.022;2022-10-26T15:51:21;13.50;99.90
7814;DHT22;3952;48.364;16.022;2022-10-26T15:53:49;13.40;99.90
7814;DHT22;3952;48.364;16.022;2022-10-26T15:56:21;13.40;99.90
7814;DHT22;3952;48.364;16.022;2022-10-26T15:58:49;13.40;99.90
7814;DHT22;3952;48.364;16.022;2022-10-26T16:01:18;13.40;99.90
7814;DHT22;3952;48.364;16.022;2022-10-26T16:03:47;13.40;99.90
7814;DHT22;3952;48.364;16.022;2022-10-26T16:06:17;13.40;99.90
7814;DHT22;3952;48.364;16.022;2022-10-26T16:08:48;13.40;99.90
7814;DHT22;3952;48.364;16.022;2022-10-26T16:11:15;13.40;99.90
7814;DHT22;3952;48.364;16.022;2022-10-26T16:13:44;13.40;99.90
7814;DHT22;3952;48.364;16.022;2022-10-26T16:16:13;13.40;99.90
7814;DHT22;3952;48.364;16.022;2022-10-26T16:18:40;13.40;99.90
7814;DHT22;3952;48.364;16.022;2022-10-26T16:21:10;13.40;99.90
7814;DHT22;3952;48.364;16.022;2022-10-26T16:23:38;13.40;99.90
7814;DHT22;3952;48.364;16.022;2022-10-26T16:26:05;13.40;99.90
7814;DHT22;3952;48.364;16.022;2022-10-26T16:28:34;13.30;99.90
7814;DHT22;3952;48.364;16.022;2022-10-26T16:31:04;13.30;99.90
7814;DHT22;3952;48.364;16.022;2022-10-26T16:33:33;13.30;99.90
7814;DHT22;3952;48.364;16.022;2022-10-26T16:36:01;13.30;99.90